Lafayette, TN

1:53 PM CDT on July 05, 2015 (GMT -0500)
RAWS | | Change Station
CLOSE
Current Station
Personal Weather Station
Location: Lafayette, TN
Elevation: 970 ft
Nearby Weather Stations

Elev 970 ft 36.54 °N, 86.00 °W | Updated 47 minutes ago

Overcast
Overcast
77.0 °F
Feels Like 79 °F
N
4.0
Wind Variable Wind from NNW
Gusts 10.0 mph

Today
High -- | Low -- °F
--% Chance of Precip.
Yesterday
High -- | Low -- °F
Precip. -- in
5:31 AM 8:05 PM
Waning Gibbous, 83% visible
Pressure 30.09 in
Visibility 10.0 miles
Clouds Mostly Cloudy 1700 ft
Overcast 2600 ft
Heat Index 79 °F
Dew Point 69.0 °F
Humidity 77%
Rainfall in
Snow Depth Not available.
UV 4 out of 12
Pollen 1.00 out of 12
Air Quality Not available.
Flu Activity Not available.
METAR KGLW 051835Z AUTO 26005KT 10SM BKN017 OVC026 25/20 A3009 RMK AO2 T02460201

More Conditions Fewer Conditions

Pressure 30.09 in
Visibility 10.0 miles
Clouds Mostly Cloudy 1700 ft
Overcast 2600 ft
Heat Index 79 °F
Dew Point 69.0 °F
Humidity 77%
Rainfall in
Snow Depth Not available.
UV 4 out of 12
Pollen 1.00 out of 12
Air Quality Not available.
Flu Activity Not available.
METAR KGLW 051835Z AUTO 26005KT 10SM BKN017 OVC026 25/20 A3009 RMK AO2 T02460201

More Conditions Fewer Conditions

10-Day Weather Forecast

×

Almanac

Astronomy

Jul. 05, 2015 Rise Set
Actual Time
Civil Twilight
Nautical Twilight
Astronomical Twilight
Moon
Length of Visible Light
Length of Day
Tomorrow will be .
, % of the Moon is Illuminated

Today's Extremes

State Highs State Lows

Community

WunderPhotos

Upload Photos

1,835,346 photos uploaded!

WunderBlogs® & News

Nearby

Air Quality

  Air Quality AQ Index Pollutant
Not available.

Snow Depth

Station Depth Elevation

Earthquake Activity

City Distance Mag. Time & Date
Minimum magnitude displayed is 2.5.

Coastal Water Temperatures

Place Temperature

Stations

Nearby Weather Stations

Station Location Temp. Windchill Dew Point Humidity Wind Precip. Elev Updated Type